sensor_id;sensor_type;location;lat;lon;timestamp;P1;durP1;ratioP1;P2;durP2;ratioP2
70052;SDS011;57398;52.032;4.376;2023-08-24T00:00:01;6.97;;;2.42;;
70052;SDS011;57398;52.032;4.376;2023-08-24T00:02:51;8.17;;;2.90;;
70052;SDS011;57398;52.032;4.376;2023-08-24T00:05:40;8.80;;;2.80;;
70052;SDS011;57398;52.032;4.376;2023-08-24T00:08:29;7.45;;;2.70;;
70052;SDS011;57398;52.032;4.376;2023-08-24T00:11:17;6.60;;;2.80;;
70052;SDS011;57398;52.032;4.376;2023-08-24T00:14:06;6.32;;;2.60;;
70052;SDS011;57398;52.032;4.376;2023-08-24T00:16:54;6.20;;;2.43;;
70052;SDS011;57398;52.032;4.376;2023-08-24T00:19:42;8.23;;;2.38;;
70052;SDS011;57398;52.032;4.376;2023-08-24T00:22:32;8.02;;;2.60;;
70052;SDS011;57398;52.032;4.376;2023-08-24T00:25:21;6.00;;;2.40;;
70052;SDS011;57398;52.032;4.376;2023-08-24T00:28:09;6.15;;;2.35;;
70052;SDS011;57398;52.032;4.376;2023-08-24T00:30:59;5.97;;;2.30;;
70052;SDS011;57398;52.032;4.376;2023-08-24T00:33:47;5.57;;;2.05;;
70052;SDS011;57398;52.032;4.376;2023-08-24T00:36:37;8.05;;;2.15;;
70052;SDS011;57398;52.032;4.376;2023-08-24T00:39:25;6.70;;;2.40;;
70052;SDS011;57398;52.032;4.376;2023-08-24T00:42:13;7.25;;;2.35;;
70052;SDS011;57398;52.032;4.376;2023-08-24T00:45:02;6.57;;;2.43;;
70052;SDS011;57398;52.032;4.376;2023-08-24T00:47:51;7.30;;;2.38;;
70052;SDS011;57398;52.032;4.376;2023-08-24T00:50:40;7.68;;;3.08;;
70052;SDS011;57398;52.032;4.376;2023-08-24T00:53:29;8.70;;;3.15;;
70052;SDS011;57398;52.032;4.376;2023-08-24T00:56:18;7.10;;;2.45;;
70052;SDS011;57398;52.032;4.376;2023-08-24T00:59:11;6.73;;;2.63;;
70052;SDS011;57398;52.032;4.376;2023-08-24T01:01:59;7.07;;;2.78;;
70052;SDS011;57398;52.032;4.376;2023-08-24T01:04:49;8.13;;;2.90;;
70052;SDS011;57398;52.032;4.376;2023-08-24T01:07:38;7.53;;;3.05;;
70052;SDS011;57398;52.032;4.376;2023-08-24T01:10:26;6.97;;;3.08;;
70052;SDS011;57398;52.032;4.376;2023-08-24T01:13:20;7.60;;;3.00;;
70052;SDS011;57398;52.032;4.376;2023-08-24T01:16:16;8.48;;;3.03;;
70052;SDS011;57398;52.032;4.376;2023-08-24T01:19:07;6.70;;;2.78;;
70052;SDS011;57398;52.032;4.376;2023-08-24T01:22:17;7.28;;;2.88;;
70052;SDS011;57398;52.032;4.376;2023-08-24T01:25:20;7.72;;;3.08;;
70052;SDS011;57398;52.032;4.376;2023-08-24T01:28:22;8.13;;;3.03;;
70052;SDS011;57398;52.032;4.376;2023-08-24T01:31:11;8.15;;;2.65;;
70052;SDS011;57398;52.032;4.376;2023-08-24T01:34:00;7.50;;;3.25;;
70052;SDS011;57398;52.032;4.376;2023-08-24T01:36:49;8.32;;;3.42;;
70052;SDS011;57398;52.032;4.376;2023-08-24T01:39:39;9.10;;;3.28;;
70052;SDS011;57398;52.032;4.376;2023-08-24T01:42:31;8.83;;;3.33;;
70052;SDS011;57398;52.032;4.376;2023-08-24T01:45:29;9.18;;;4.10;;
70052;SDS011;57398;52.032;4.376;2023-08-24T01:48:17;10.02;;;3.72;;
70052;SDS011;57398;52.032;4.376;2023-08-24T01:51:05;9.35;;;3.72;;
70052;SDS011;57398;52.032;4.376;2023-08-24T01:53:57;9.82;;;3.42;;
70052;SDS011;57398;52.032;4.376;2023-08-24T01:56:45;9.03;;;3.57;;
70052;SDS011;57398;52.032;4.376;2023-08-24T01:59:33;10.38;;;3.85;;
70052;SDS011;57398;52.032;4.376;2023-08-24T02:02:23;10.85;;;3.35;;
70052;SDS011;57398;52.032;4.376;2023-08-24T02:05:12;11.15;;;3.55;;
70052;SDS011;57398;52.032;4.376;2023-08-24T02:08:00;10.82;;;3.63;;
70052;SDS011;57398;52.032;4.376;2023-08-24T02:10:48;10.17;;;3.87;;
70052;SDS011;57398;52.032;4.376;2023-08-24T02:13:36;11.05;;;4.05;;
70052;SDS011;57398;52.032;4.376;2023-08-24T02:16:24;10.73;;;4.32;;
70052;SDS011;57398;52.032;4.376;2023-08-24T02:19:14;9.88;;;3.78;;
70052;SDS011;57398;52.032;4.376;2023-08-24T02:22:02;8.70;;;3.45;;
70052;SDS011;57398;52.032;4.376;2023-08-24T02:24:50;10.93;;;4.00;;
70052;SDS011;57398;52.032;4.376;2023-08-24T02:27:39;10.48;;;3.80;;
70052;SDS011;57398;52.032;4.376;2023-08-24T02:30:27;10.68;;;3.55;;
70052;SDS011;57398;52.032;4.376;2023-08-24T02:33:15;10.57;;;4.15;;
70052;SDS011;57398;52.032;4.376;2023-08-24T02:36:05;12.27;;;3.75;;
70052;SDS011;57398;52.032;4.376;2023-08-24T02:38:53;10.27;;;4.47;;
70052;SDS011;57398;52.032;4.376;2023-08-24T02:41:41;11.38;;;4.15;;
70052;SDS011;57398;52.032;4.376;2023-08-24T02:44:29;11.80;;;3.90;;
70052;SDS011;57398;52.032;4.376;2023-08-24T02:47:18;10.13;;;4.15;;
70052;SDS011;57398;52.032;4.376;2023-08-24T02:50:06;11.07;;;4.38;;
70052;SDS011;57398;52.032;4.376;2023-08-24T02:52:56;11.27;;;3.77;;
70052;SDS011;57398;52.032;4.376;2023-08-24T02:55:45;11.02;;;3.88;;
70052;SDS011;57398;52.032;4.376;2023-08-24T02:58:33;11.88;;;4.28;;
70052;SDS011;57398;52.032;4.376;2023-08-24T03:01:21;10.32;;;4.07;;
70052;SDS011;57398;52.032;4.376;2023-08-24T03:04:10;12.05;;;4.28;;
70052;SDS011;57398;52.032;4.376;2023-08-24T03:06:58;11.33;;;3.87;;
70052;SDS011;57398;52.032;4.376;2023-08-24T03:09:48;10.35;;;4.05;;
70052;SDS011;57398;52.032;4.376;2023-08-24T03:12:36;13.40;;;4.88;;
70052;SDS011;57398;52.032;4.376;2023-08-24T03:15:24;11.02;;;4.38;;
70052;SDS011;57398;52.032;4.376;2023-08-24T03:18:13;12.20;;;4.85;;
70052;SDS011;57398;52.032;4.376;2023-08-24T03:21:04;14.23;;;5.03;;
70052;SDS011;57398;52.032;4.376;2023-08-24T03:23:52;12.32;;;5.43;;
70052;SDS011;57398;52.032;4.376;2023-08-24T03:26:41;11.70;;;4.95;;
70052;SDS011;57398;52.032;4.376;2023-08-24T03:29:29;11.00;;;4.35;;
70052;SDS011;57398;52.032;4.376;2023-08-24T03:32:17;13.20;;;4.85;;
70052;SDS011;57398;52.032;4.376;2023-08-24T03:35:06;11.60;;;4.97;;
70052;SDS011;57398;52.032;4.376;2023-08-24T03:37:54;13.93;;;5.28;;
70052;SDS011;57398;52.032;4.376;2023-08-24T03:40:42;11.45;;;4.93;;
70052;SDS011;57398;52.032;4.376;2023-08-24T03:43:32;12.45;;;4.50;;
70052;SDS011;57398;52.032;4.376;2023-08-24T03:46:21;14.38;;;5.10;;
70052;SDS011;57398;52.032;4.376;2023-08-24T03:49:09;13.73;;;4.43;;
70052;SDS011;57398;52.032;4.376;2023-08-24T03:51:58;12.52;;;4.43;;
70052;SDS011;57398;52.032;4.376;2023-08-24T03:54:46;10.60;;;4.10;;
70052;SDS011;57398;52.032;4.376;2023-08-24T03:57:34;10.30;;;4.07;;
70052;SDS011;57398;52.032;4.376;2023-08-24T04:00:23;11.18;;;4.00;;
70052;SDS011;57398;52.032;4.376;2023-08-24T04:03:13;11.37;;;4.60;;
70052;SDS011;57398;52.032;4.376;2023-08-24T04:06:01;12.10;;;4.70;;
70052;SDS011;57398;52.032;4.376;2023-08-24T04:08:48;11.07;;;4.78;;
70052;SDS011;57398;52.032;4.376;2023-08-24T04:11:36;13.13;;;5.38;;
70052;SDS011;57398;52.032;4.376;2023-08-24T04:14:24;13.88;;;5.15;;
70052;SDS011;57398;52.032;4.376;2023-08-24T04:17:13;11.70;;;4.93;;
70052;SDS011;57398;52.032;4.376;2023-08-24T04:20:01;12.48;;;5.07;;
70052;SDS011;57398;52.032;4.376;2023-08-24T04:22:50;13.10;;;5.18;;
70052;SDS011;57398;52.032;4.376;2023-08-24T04:25:39;11.88;;;4.72;;
70052;SDS011;57398;52.032;4.376;2023-08-24T04:28:27;12.13;;;5.00;;
70052;SDS011;57398;52.032;4.376;2023-08-24T04:31:14;11.57;;;5.07;;
70052;SDS011;57398;52.032;4.376;2023-08-24T04:34:04;13.13;;;5.28;;
70052;SDS011;57398;52.032;4.376;2023-08-24T04:36:52;13.27;;;5.50;;
70052;SDS011;57398;52.032;4.376;2023-08-24T04:39:41;12.85;;;5.05;;
70052;SDS011;57398;52.032;4.376;2023-08-24T04:42:29;12.82;;;5.18;;
70052;SDS011;57398;52.032;4.376;2023-08-24T04:45:17;14.13;;;5.40;;
70052;SDS011;57398;52.032;4.376;2023-08-24T04:48:05;12.68;;;4.78;;
70052;SDS011;57398;52.032;4.376;2023-08-24T04:50:54;13.63;;;5.57;;
70052;SDS011;57398;52.032;4.376;2023-08-24T04:53:43;13.07;;;5.18;;
70052;SDS011;57398;52.032;4.376;2023-08-24T04:56:30;16.23;;;5.55;;
70052;SDS011;57398;52.032;4.376;2023-08-24T04:59:19;12.73;;;4.93;;
70052;SDS011;57398;52.032;4.376;2023-08-24T05:02:07;12.57;;;5.13;;
70052;SDS011;57398;52.032;4.376;2023-08-24T05:04:55;12.40;;;5.47;;
70052;SDS011;57398;52.032;4.376;2023-08-24T05:07:44;12.88;;;5.97;;
70052;SDS011;57398;52.032;4.376;2023-08-24T05:10:33;12.43;;;5.43;;
70052;SDS011;57398;52.032;4.376;2023-08-24T05:13:21;15.60;;;6.37;;
70052;SDS011;57398;52.032;4.376;2023-08-24T05:16:09;13.90;;;5.57;;
70052;SDS011;57398;52.032;4.376;2023-08-24T05:18:57;12.23;;;6.10;;
70052;SDS011;57398;52.032;4.376;2023-08-24T05:21:45;13.80;;;6.07;;
70052;SDS011;57398;52.032;4.376;2023-08-24T05:24:35;15.38;;;6.00;;
70052;SDS011;57398;52.032;4.376;2023-08-24T05:27:23;15.73;;;6.07;;
70052;SDS011;57398;52.032;4.376;2023-08-24T05:30:11;11.93;;;5.63;;
70052;SDS011;57398;52.032;4.376;2023-08-24T05:32:59;13.98;;;6.03;;
70052;SDS011;57398;52.032;4.376;2023-08-24T05:35:47;16.33;;;6.63;;
70052;SDS011;57398;52.032;4.376;2023-08-24T05:38:35;13.30;;;5.72;;
70052;SDS011;57398;52.032;4.376;2023-08-24T05:41:28;15.90;;;5.77;;
70052;SDS011;57398;52.032;4.376;2023-08-24T05:44:16;13.50;;;6.10;;
70052;SDS011;57398;52.032;4.376;2023-08-24T05:47:04;13.82;;;6.28;;
70052;SDS011;57398;52.032;4.376;2023-08-24T05:49:52;15.55;;;6.63;;
70052;SDS011;57398;52.032;4.376;2023-08-24T05:52:40;14.27;;;6.00;;
70052;SDS011;57398;52.032;4.376;2023-08-24T05:55:28;17.90;;;7.23;;
70052;SDS011;57398;52.032;4.376;2023-08-24T05:58:17;14.80;;;6.55;;
70052;SDS011;57398;52.032;4.376;2023-08-24T06:01:05;14.18;;;6.35;;
70052;SDS011;57398;52.032;4.376;2023-08-24T06:03:53;15.48;;;6.75;;
70052;SDS011;57398;52.032;4.376;2023-08-24T06:06:41;15.50;;;7.07;;
70052;SDS011;57398;52.032;4.376;2023-08-24T06:09:29;14.97;;;7.03;;
70052;SDS011;57398;52.032;4.376;2023-08-24T06:12:18;13.88;;;6.43;;
70052;SDS011;57398;52.032;4.376;2023-08-24T06:15:08;14.90;;;6.90;;
70052;SDS011;57398;52.032;4.376;2023-08-24T06:17:57;15.40;;;6.53;;
70052;SDS011;57398;52.032;4.376;2023-08-24T06:20:47;16.40;;;6.70;;
70052;SDS011;57398;52.032;4.376;2023-08-24T06:23:35;14.73;;;6.30;;
70052;SDS011;57398;52.032;4.376;2023-08-24T06:26:23;16.65;;;6.85;;
70052;SDS011;57398;52.032;4.376;2023-08-24T06:29:12;15.65;;;7.05;;
70052;SDS011;57398;52.032;4.376;2023-08-24T06:32:01;14.63;;;6.82;;
70052;SDS011;57398;52.032;4.376;2023-08-24T06:34:49;15.05;;;6.63;;
70052;SDS011;57398;52.032;4.376;2023-08-24T06:37:37;16.87;;;6.90;;
70052;SDS011;57398;52.032;4.376;2023-08-24T06:40:25;14.15;;;6.88;;
70052;SDS011;57398;52.032;4.376;2023-08-24T06:43:13;15.43;;;7.07;;
70052;SDS011;57398;52.032;4.376;2023-08-24T06:46:01;13.35;;;6.60;;
70052;SDS011;57398;52.032;4.376;2023-08-24T06:48:51;17.90;;;7.38;;
70052;SDS011;57398;52.032;4.376;2023-08-24T06:51:38;16.70;;;7.60;;
70052;SDS011;57398;52.032;4.376;2023-08-24T06:54:26;20.50;;;7.82;;
70052;SDS011;57398;52.032;4.376;2023-08-24T06:57:15;17.60;;;7.80;;
70052;SDS011;57398;52.032;4.376;2023-08-24T07:00:03;15.55;;;7.30;;
70052;SDS011;57398;52.032;4.376;2023-08-24T07:02:54;20.17;;;7.72;;
70052;SDS011;57398;52.032;4.376;2023-08-24T07:05:43;22.23;;;8.50;;
70052;SDS011;57398;52.032;4.376;2023-08-24T07:08:31;17.25;;;7.53;;
70052;SDS011;57398;52.032;4.376;2023-08-24T07:11:23;17.45;;;7.93;;
70052;SDS011;57398;52.032;4.376;2023-08-24T07:14:11;20.45;;;8.35;;
70052;SDS011;57398;52.032;4.376;2023-08-24T07:16:59;17.23;;;8.65;;
70052;SDS011;57398;52.032;4.376;2023-08-24T07:19:47;17.45;;;8.15;;
70052;SDS011;57398;52.032;4.376;2023-08-24T07:22:36;17.63;;;8.00;;
70052;SDS011;57398;52.032;4.376;2023-08-24T07:25:24;17.45;;;7.45;;
70052;SDS011;57398;52.032;4.376;2023-08-24T07:28:12;16.42;;;8.20;;
70052;SDS011;57398;52.032;4.376;2023-08-24T07:31:06;18.50;;;8.63;;
70052;SDS011;57398;52.032;4.376;2023-08-24T07:33:57;17.15;;;8.48;;
70052;SDS011;57398;52.032;4.376;2023-08-24T07:36:45;17.10;;;8.30;;
70052;SDS011;57398;52.032;4.376;2023-08-24T07:39:37;15.52;;;8.15;;
70052;SDS011;57398;52.032;4.376;2023-08-24T07:42:25;17.17;;;7.80;;
70052;SDS011;57398;52.032;4.376;2023-08-24T07:45:13;14.20;;;7.05;;
70052;SDS011;57398;52.032;4.376;2023-08-24T07:48:01;14.63;;;7.78;;
70052;SDS011;57398;52.032;4.376;2023-08-24T07:50:49;15.63;;;7.50;;
70052;SDS011;57398;52.032;4.376;2023-08-24T07:53:38;16.88;;;7.95;;
70052;SDS011;57398;52.032;4.376;2023-08-24T07:56:27;15.25;;;8.20;;
70052;SDS011;57398;52.032;4.376;2023-08-24T07:59:15;15.95;;;7.70;;
70052;SDS011;57398;52.032;4.376;2023-08-24T08:02:03;16.85;;;8.40;;
70052;SDS011;57398;52.032;4.376;2023-08-24T08:04:51;23.13;;;7.43;;
70052;SDS011;57398;52.032;4.376;2023-08-24T08:07:39;15.05;;;7.43;;
70052;SDS011;57398;52.032;4.376;2023-08-24T08:10:27;15.80;;;7.40;;
70052;SDS011;57398;52.032;4.376;2023-08-24T08:13:16;15.93;;;7.82;;
70052;SDS011;57398;52.032;4.376;2023-08-24T08:16:05;16.42;;;7.75;;
70052;SDS011;57398;52.032;4.376;2023-08-24T08:18:54;16.73;;;8.03;;
70052;SDS011;57398;52.032;4.376;2023-08-24T08:21:42;16.23;;;7.80;;
70052;SDS011;57398;52.032;4.376;2023-08-24T08:24:30;15.40;;;7.85;;
70052;SDS011;57398;52.032;4.376;2023-08-24T08:27:18;14.50;;;7.63;;
70052;SDS011;57398;52.032;4.376;2023-08-24T08:30:08;14.55;;;8.07;;
70052;SDS011;57398;52.032;4.376;2023-08-24T08:32:56;15.13;;;7.93;;
70052;SDS011;57398;52.032;4.376;2023-08-24T08:35:44;16.30;;;7.32;;
70052;SDS011;57398;52.032;4.376;2023-08-24T08:38:32;14.15;;;7.85;;
70052;SDS011;57398;52.032;4.376;2023-08-24T08:41:21;17.70;;;8.10;;
70052;SDS011;57398;52.032;4.376;2023-08-24T08:44:11;15.30;;;7.78;;
70052;SDS011;57398;52.032;4.376;2023-08-24T08:47:01;13.47;;;7.20;;
70052;SDS011;57398;52.032;4.376;2023-08-24T08:49:49;16.25;;;7.53;;
70052;SDS011;57398;52.032;4.376;2023-08-24T08:52:38;15.65;;;7.78;;
70052;SDS011;57398;52.032;4.376;2023-08-24T08:55:25;16.10;;;7.28;;
70052;SDS011;57398;52.032;4.376;2023-08-24T08:58:13;14.40;;;7.32;;
70052;SDS011;57398;52.032;4.376;2023-08-24T09:01:02;16.57;;;7.87;;
70052;SDS011;57398;52.032;4.376;2023-08-24T09:03:52;14.13;;;6.65;;
70052;SDS011;57398;52.032;4.376;2023-08-24T09:06:41;13.82;;;7.13;;
70052;SDS011;57398;52.032;4.376;2023-08-24T09:09:29;15.75;;;7.95;;
70052;SDS011;57398;52.032;4.376;2023-08-24T09:12:19;14.48;;;7.20;;
70052;SDS011;57398;52.032;4.376;2023-08-24T09:15:07;12.53;;;6.57;;
70052;SDS011;57398;52.032;4.376;2023-08-24T09:17:55;14.60;;;7.68;;
70052;SDS011;57398;52.032;4.376;2023-08-24T09:20:45;15.57;;;7.43;;
70052;SDS011;57398;52.032;4.376;2023-08-24T09:23:34;14.85;;;7.35;;
70052;SDS011;57398;52.032;4.376;2023-08-24T09:26:27;15.30;;;7.70;;
70052;SDS011;57398;52.032;4.376;2023-08-24T09:29:16;14.30;;;7.60;;
70052;SDS011;57398;52.032;4.376;2023-08-24T09:32:04;14.35;;;7.70;;
70052;SDS011;57398;52.032;4.376;2023-08-24T09:34:55;16.17;;;7.80;;
70052;SDS011;57398;52.032;4.376;2023-08-24T09:37:44;17.05;;;8.43;;
70052;SDS011;57398;52.032;4.376;2023-08-24T09:40:32;16.40;;;7.88;;
70052;SDS011;57398;52.032;4.376;2023-08-24T09:43:20;15.47;;;7.97;;
70052;SDS011;57398;52.032;4.376;2023-08-24T09:46:08;14.27;;;7.95;;
70052;SDS011;57398;52.032;4.376;2023-08-24T09:48:56;14.68;;;7.63;;
70052;SDS011;57398;52.032;4.376;2023-08-24T09:51:47;16.65;;;8.00;;
70052;SDS011;57398;52.032;4.376;2023-08-24T09:54:37;16.65;;;8.52;;
70052;SDS011;57398;52.032;4.376;2023-08-24T09:57:25;17.17;;;8.53;;
70052;SDS011;57398;52.032;4.376;2023-08-24T10:00:13;15.38;;;7.78;;
70052;SDS011;57398;52.032;4.376;2023-08-24T10:03:02;17.10;;;8.60;;
70052;SDS011;57398;52.032;4.376;2023-08-24T10:05:52;15.70;;;8.38;;
70052;SDS011;57398;52.032;4.376;2023-08-24T10:08:47;17.90;;;9.00;;
70052;SDS011;57398;52.032;4.376;2023-08-24T10:11:39;17.20;;;8.67;;
70052;SDS011;57398;52.032;4.376;2023-08-24T10:14:29;15.40;;;8.10;;
70052;SDS011;57398;52.032;4.376;2023-08-24T10:17:18;16.77;;;7.95;;
70052;SDS011;57398;52.032;4.376;2023-08-24T10:20:07;17.02;;;8.05;;
70052;SDS011;57398;52.032;4.376;2023-08-24T10:22:57;18.50;;;7.85;;
70052;SDS011;57398;52.032;4.376;2023-08-24T10:25:47;16.07;;;7.43;;
70052;SDS011;57398;52.032;4.376;2023-08-24T10:28:37;13.63;;;7.03;;
70052;SDS011;57398;52.032;4.376;2023-08-24T10:31:26;13.75;;;6.72;;
70052;SDS011;57398;52.032;4.376;2023-08-24T10:34:14;14.60;;;7.68;;
70052;SDS011;57398;52.032;4.376;2023-08-24T10:37:07;15.10;;;8.43;;
70052;SDS011;57398;52.032;4.376;2023-08-24T10:39:55;16.77;;;8.77;;
70052;SDS011;57398;52.032;4.376;2023-08-24T10:42:43;16.38;;;8.40;;
70052;SDS011;57398;52.032;4.376;2023-08-24T10:48:58;19.17;;;9.18;;
70052;SDS011;57398;52.032;4.376;2023-08-24T10:51:47;17.95;;;10.30;;
70052;SDS011;57398;52.032;4.376;2023-08-24T10:54:35;16.03;;;9.47;;
70052;SDS011;57398;52.032;4.376;2023-08-24T10:57:34;20.00;;;9.82;;
70052;SDS011;57398;52.032;4.376;2023-08-24T11:00:24;17.33;;;9.90;;
70052;SDS011;57398;52.032;4.376;2023-08-24T11:03:12;17.98;;;10.18;;
70052;SDS011;57398;52.032;4.376;2023-08-24T11:06:21;16.98;;;9.98;;
70052;SDS011;57398;52.032;4.376;2023-08-24T11:09:09;17.40;;;10.30;;
70052;SDS011;57398;52.032;4.376;2023-08-24T11:12:02;19.48;;;10.55;;
70052;SDS011;57398;52.032;4.376;2023-08-24T11:14:52;17.73;;;10.55;;
70052;SDS011;57398;52.032;4.376;2023-08-24T11:17:45;17.13;;;10.38;;
70052;SDS011;57398;52.032;4.376;2023-08-24T11:20:33;18.45;;;11.38;;
70052;SDS011;57398;52.032;4.376;2023-08-24T11:23:23;17.37;;;10.30;;
70052;SDS011;57398;52.032;4.376;2023-08-24T11:26:13;18.85;;;11.00;;
70052;SDS011;57398;52.032;4.376;2023-08-24T11:29:04;18.33;;;11.05;;
70052;SDS011;57398;52.032;4.376;2023-08-24T11:31:52;17.05;;;10.13;;
70052;SDS011;57398;52.032;4.376;2023-08-24T11:34:40;16.73;;;10.77;;
70052;SDS011;57398;52.032;4.376;2023-08-24T11:37:29;18.27;;;10.57;;
70052;SDS011;57398;52.032;4.376;2023-08-24T11:40:18;18.48;;;10.70;;
70052;SDS011;57398;52.032;4.376;2023-08-24T11:43:07;18.15;;;11.55;;
70052;SDS011;57398;52.032;4.376;2023-08-24T11:45:55;19.27;;;11.65;;
70052;SDS011;57398;52.032;4.376;2023-08-24T11:48:43;20.60;;;12.27;;
70052;SDS011;57398;52.032;4.376;2023-08-24T11:51:32;20.53;;;12.93;;
70052;SDS011;57398;52.032;4.376;2023-08-24T11:54:30;19.88;;;12.68;;
70052;SDS011;57398;52.032;4.376;2023-08-24T11:57:21;18.52;;;12.68;;
70052;SDS011;57398;52.032;4.376;2023-08-24T12:00:12;19.55;;;11.38;;
70052;SDS011;57398;52.032;4.376;2023-08-24T12:03:03;21.23;;;12.85;;
70052;SDS011;57398;52.032;4.376;2023-08-24T12:05:52;20.87;;;13.07;;
70052;SDS011;57398;52.032;4.376;2023-08-24T12:08:40;18.70;;;11.98;;
70052;SDS011;57398;52.032;4.376;2023-08-24T12:11:28;17.98;;;11.93;;
70052;SDS011;57398;52.032;4.376;2023-08-24T12:14:23;18.05;;;11.57;;
70052;SDS011;57398;52.032;4.376;2023-08-24T12:17:12;17.83;;;12.20;;
70052;SDS011;57398;52.032;4.376;2023-08-24T12:20:01;20.47;;;12.43;;
70052;SDS011;57398;52.032;4.376;2023-08-24T12:22:53;18.55;;;12.48;;
70052;SDS011;57398;52.032;4.376;2023-08-24T12:25:42;17.95;;;11.48;;
70052;SDS011;57398;52.032;4.376;2023-08-24T12:28:30;19.67;;;13.02;;
70052;SDS011;57398;52.032;4.376;2023-08-24T12:31:20;18.75;;;12.50;;
70052;SDS011;57398;52.032;4.376;2023-08-24T12:34:14;19.10;;;12.33;;
70052;SDS011;57398;52.032;4.376;2023-08-24T12:37:03;17.97;;;11.67;;
70052;SDS011;57398;52.032;4.376;2023-08-24T12:39:53;20.27;;;12.73;;
70052;SDS011;57398;52.032;4.376;2023-08-24T12:42:41;21.15;;;12.27;;
70052;SDS011;57398;52.032;4.376;2023-08-24T12:45:30;21.27;;;11.73;;
70052;SDS011;57398;52.032;4.376;2023-08-24T12:48:20;22.13;;;12.38;;
70052;SDS011;57398;52.032;4.376;2023-08-24T12:51:09;18.57;;;11.63;;
70052;SDS011;57398;52.032;4.376;2023-08-24T12:53:57;17.90;;;11.10;;
70052;SDS011;57398;52.032;4.376;2023-08-24T12:56:45;18.90;;;10.90;;
70052;SDS011;57398;52.032;4.376;2023-08-24T12:59:33;19.67;;;11.40;;
70052;SDS011;57398;52.032;4.376;2023-08-24T13:02:21;18.05;;;10.77;;
70052;SDS011;57398;52.032;4.376;2023-08-24T13:05:20;18.37;;;11.23;;
70052;SDS011;57398;52.032;4.376;2023-08-24T13:08:09;19.75;;;12.27;;
70052;SDS011;57398;52.032;4.376;2023-08-24T13:10:57;17.30;;;9.98;;
70052;SDS011;57398;52.032;4.376;2023-08-24T13:13:45;19.40;;;10.90;;
70052;SDS011;57398;52.032;4.376;2023-08-24T13:16:33;18.98;;;10.73;;
70052;SDS011;57398;52.032;4.376;2023-08-24T13:19:22;19.33;;;11.63;;
70052;SDS011;57398;52.032;4.376;2023-08-24T13:22:11;20.40;;;11.65;;
70052;SDS011;57398;52.032;4.376;2023-08-24T13:24:59;20.10;;;10.77;;
70052;SDS011;57398;52.032;4.376;2023-08-24T13:27:47;18.35;;;11.40;;
70052;SDS011;57398;52.032;4.376;2023-08-24T13:30:36;20.90;;;11.80;;
70052;SDS011;57398;52.032;4.376;2023-08-24T13:33:24;19.03;;;11.20;;
70052;SDS011;57398;52.032;4.376;2023-08-24T13:36:13;18.75;;;10.65;;
70052;SDS011;57398;52.032;4.376;2023-08-24T13:39:02;19.55;;;11.05;;
70052;SDS011;57398;52.032;4.376;2023-08-24T13:41:51;20.25;;;11.40;;
70052;SDS011;57398;52.032;4.376;2023-08-24T13:44:39;18.52;;;10.40;;
70052;SDS011;57398;52.032;4.376;2023-08-24T13:47:27;16.40;;;10.57;;
70052;SDS011;57398;52.032;4.376;2023-08-24T13:50:16;17.45;;;10.48;;
70052;SDS011;57398;52.032;4.376;2023-08-24T13:53:04;14.75;;;8.00;;
70052;SDS011;57398;52.032;4.376;2023-08-24T13:55:53;12.43;;;7.28;;
70052;SDS011;57398;52.032;4.376;2023-08-24T13:58:42;12.43;;;6.95;;
70052;SDS011;57398;52.032;4.376;2023-08-24T14:01:30;13.13;;;5.97;;
70052;SDS011;57398;52.032;4.376;2023-08-24T14:04:19;11.18;;;5.32;;
70052;SDS011;57398;52.032;4.376;2023-08-24T14:07:08;10.70;;;5.28;;
70052;SDS011;57398;52.032;4.376;2023-08-24T14:09:56;10.07;;;4.97;;
70052;SDS011;57398;52.032;4.376;2023-08-24T14:12:53;9.85;;;4.95;;
70052;SDS011;57398;52.032;4.376;2023-08-24T14:15:41;11.07;;;5.37;;
70052;SDS011;57398;52.032;4.376;2023-08-24T14:18:29;8.43;;;5.10;;
70052;SDS011;57398;52.032;4.376;2023-08-24T14:21:18;9.77;;;5.00;;
70052;SDS011;57398;52.032;4.376;2023-08-24T14:24:12;11.50;;;6.43;;
70052;SDS011;57398;52.032;4.376;2023-08-24T14:27:01;10.70;;;5.25;;
70052;SDS011;57398;52.032;4.376;2023-08-24T14:29:50;11.63;;;6.70;;
70052;SDS011;57398;52.032;4.376;2023-08-24T14:32:38;12.73;;;6.60;;
70052;SDS011;57398;52.032;4.376;2023-08-24T14:35:27;12.93;;;7.40;;
70052;SDS011;57398;52.032;4.376;2023-08-24T14:38:17;14.02;;;6.97;;
70052;SDS011;57398;52.032;4.376;2023-08-24T14:41:05;13.00;;;7.13;;
70052;SDS011;57398;52.032;4.376;2023-08-24T14:43:53;13.00;;;7.30;;
70052;SDS011;57398;52.032;4.376;2023-08-24T14:46:43;13.23;;;7.30;;
70052;SDS011;57398;52.032;4.376;2023-08-24T14:49:31;12.45;;;7.40;;
70052;SDS011;57398;52.032;4.376;2023-08-24T14:52:20;13.15;;;7.10;;
70052;SDS011;57398;52.032;4.376;2023-08-24T14:55:08;12.45;;;6.85;;
70052;SDS011;57398;52.032;4.376;2023-08-24T14:57:56;12.70;;;7.17;;
70052;SDS011;57398;52.032;4.376;2023-08-24T15:00:46;12.23;;;6.97;;
70052;SDS011;57398;52.032;4.376;2023-08-24T15:03:36;13.30;;;7.07;;
70052;SDS011;57398;52.032;4.376;2023-08-24T15:06:25;11.75;;;6.75;;
70052;SDS011;57398;52.032;4.376;2023-08-24T15:09:13;11.18;;;6.00;;
70052;SDS011;57398;52.032;4.376;2023-08-24T15:12:01;12.63;;;6.30;;
70052;SDS011;57398;52.032;4.376;2023-08-24T15:14:56;11.93;;;6.43;;
70052;SDS011;57398;52.032;4.376;2023-08-24T15:17:45;9.80;;;5.72;;
70052;SDS011;57398;52.032;4.376;2023-08-24T15:20:37;9.70;;;5.75;;
70052;SDS011;57398;52.032;4.376;2023-08-24T15:23:26;9.80;;;5.03;;
70052;SDS011;57398;52.032;4.376;2023-08-24T15:26:16;9.63;;;4.50;;
70052;SDS011;57398;52.032;4.376;2023-08-24T15:29:08;8.43;;;4.30;;
70052;SDS011;57398;52.032;4.376;2023-08-24T15:32:00;9.45;;;4.00;;
70052;SDS011;57398;52.032;4.376;2023-08-24T15:34:48;8.85;;;4.07;;
70052;SDS011;57398;52.032;4.376;2023-08-24T15:37:37;7.15;;;3.58;;
70052;SDS011;57398;52.032;4.376;2023-08-24T15:40:26;9.57;;;3.40;;
70052;SDS011;57398;52.032;4.376;2023-08-24T15:43:18;6.72;;;3.40;;
70052;SDS011;57398;52.032;4.376;2023-08-24T15:46:06;6.45;;;2.80;;
70052;SDS011;57398;52.032;4.376;2023-08-24T15:48:55;6.95;;;2.70;;
70052;SDS011;57398;52.032;4.376;2023-08-24T15:51:45;6.63;;;2.92;;
70052;SDS011;57398;52.032;4.376;2023-08-24T15:54:35;7.30;;;2.70;;
70052;SDS011;57398;52.032;4.376;2023-08-24T15:57:23;6.25;;;2.50;;
70052;SDS011;57398;52.032;4.376;2023-08-24T16:00:12;6.70;;;3.05;;
70052;SDS011;57398;52.032;4.376;2023-08-24T16:03:01;5.43;;;2.60;;
70052;SDS011;57398;52.032;4.376;2023-08-24T16:05:50;5.72;;;3.20;;
70052;SDS011;57398;52.032;4.376;2023-08-24T16:08:38;5.87;;;2.80;;
70052;SDS011;57398;52.032;4.376;2023-08-24T16:11:27;5.90;;;2.53;;
70052;SDS011;57398;52.032;4.376;2023-08-24T16:14:16;6.45;;;3.10;;
70052;SDS011;57398;52.032;4.376;2023-08-24T16:17:04;5.57;;;2.70;;
70052;SDS011;57398;52.032;4.376;2023-08-24T16:19:52;5.82;;;2.90;;
70052;SDS011;57398;52.032;4.376;2023-08-24T16:22:40;5.77;;;2.90;;
70052;SDS011;57398;52.032;4.376;2023-08-24T16:25:28;5.40;;;2.47;;
70052;SDS011;57398;52.032;4.376;2023-08-24T16:28:20;5.95;;;2.70;;
70052;SDS011;57398;52.032;4.376;2023-08-24T16:31:08;5.13;;;2.53;;
70052;SDS011;57398;52.032;4.376;2023-08-24T16:33:56;6.25;;;2.75;;
70052;SDS011;57398;52.032;4.376;2023-08-24T16:36:44;5.70;;;2.87;;
70052;SDS011;57398;52.032;4.376;2023-08-24T16:39:32;8.13;;;2.70;;
70052;SDS011;57398;52.032;4.376;2023-08-24T16:42:21;5.57;;;2.67;;
70052;SDS011;57398;52.032;4.376;2023-08-24T16:45:10;6.78;;;2.75;;
70052;SDS011;57398;52.032;4.376;2023-08-24T16:47:59;6.88;;;3.00;;